createdAt,value
2023-03-29T00:00:01.913Z,164.96
2023-03-29T00:01:02.090Z,165.34
2023-03-29T00:02:01.958Z,163.09
2023-03-29T00:03:01.957Z,161.68
2023-03-29T00:04:02.842Z,159.35
2023-03-29T00:05:02.014Z,158.26
2023-03-29T00:06:01.876Z,159.88
2023-03-29T00:07:01.869Z,162.18
2023-03-29T00:08:01.929Z,161.04
2023-03-29T00:09:01.951Z,162.23
2023-03-29T00:10:01.861Z,166.80
2023-03-29T00:11:01.937Z,173.02
2023-03-29T00:12:01.884Z,174.87
2023-03-29T00:13:01.825Z,170.48
2023-03-29T00:14:01.837Z,165.20
2023-03-29T00:15:01.811Z,165.12
2023-03-29T00:16:01.792Z,167.12
2023-03-29T00:17:01.822Z,163.57
2023-03-29T00:18:01.807Z,164.13
2023-03-29T00:19:01.765Z,164.73
2023-03-29T00:20:01.769Z,162.34
2023-03-29T00:21:02.068Z,159.68
2023-03-29T00:22:01.766Z,157.67
2023-03-29T00:23:01.737Z,155.48
2023-03-29T00:24:01.727Z,153.61
2023-03-29T00:25:01.743Z,156.65
2023-03-29T00:26:01.723Z,152.36
2023-03-29T00:27:01.735Z,148.57
2023-03-29T00:28:01.713Z,145.00
2023-03-29T00:29:01.709Z,141.21
2023-03-29T00:30:01.688Z,142.05
2023-03-29T00:31:01.919Z,140.23
2023-03-29T00:32:01.686Z,148.19
2023-03-29T00:33:01.702Z,146.94
2023-03-29T00:34:01.669Z,140.54
2023-03-29T00:35:01.682Z,134.65
2023-03-29T00:36:01.743Z,133.47
2023-03-29T00:37:01.737Z,133.42
2023-03-29T00:38:01.761Z,132.33
2023-03-29T00:39:01.821Z,129.06
2023-03-29T00:40:01.813Z,127.71
2023-03-29T00:41:01.991Z,131.27
2023-03-29T00:42:01.867Z,157.94
2023-03-29T00:43:01.851Z,180.42
2023-03-29T00:44:01.875Z,177.04
2023-03-29T00:45:01.880Z,165.44
2023-03-29T00:46:01.956Z,162.99
2023-03-29T00:47:01.949Z,164.10
2023-03-29T00:48:01.998Z,165.99
2023-03-29T00:49:01.983Z,164.67
2023-03-29T00:50:02.002Z,163.84
2023-03-29T00:51:02.284Z,162.65
2023-03-29T00:52:02.033Z,162.99
2023-03-29T00:53:02.044Z,159.67
2023-03-29T00:54:02.061Z,162.89
2023-03-29T00:55:02.132Z,162.05
2023-03-29T00:56:02.164Z,162.77
2023-03-29T00:57:02.341Z,166.71
2023-03-29T00:58:02.221Z,169.42
2023-03-29T00:59:02.256Z,172.70
2023-03-29T01:00:02.262Z,173.85
2023-03-29T01:01:02.594Z,172.07
2023-03-29T01:02:02.380Z,168.15
2023-03-29T01:03:02.432Z,162.46
2023-03-29T01:04:02.460Z,162.52
2023-03-29T01:05:02.361Z,174.33
2023-03-29T01:06:02.417Z,187.29
2023-03-29T01:07:02.463Z,202.49
2023-03-29T01:08:02.483Z,212.06
2023-03-29T01:09:02.528Z,201.78
2023-03-29T01:10:02.589Z,184.51
2023-03-29T01:11:02.872Z,174.77
2023-03-29T01:12:02.675Z,167.96
2023-03-29T01:13:02.713Z,164.93
2023-03-29T01:14:02.762Z,160.48
2023-03-29T01:15:02.800Z,161.12
2023-03-29T01:16:02.860Z,155.15
2023-03-29T01:17:02.882Z,155.96
2023-03-29T01:18:03.033Z,155.06
2023-03-29T01:19:02.990Z,155.17
2023-03-29T01:20:03.058Z,156.71
2023-03-29T01:21:03.270Z,160.76
2023-03-29T01:22:03.141Z,160.95
2023-03-29T01:23:03.158Z,164.60
2023-03-29T01:24:03.198Z,164.34
2023-03-29T01:25:03.194Z,166.47
2023-03-29T01:26:03.220Z,163.42
2023-03-29T01:27:03.260Z,164.72
2023-03-29T01:28:03.311Z,165.17
2023-03-29T01:29:03.299Z,167.15
2023-03-29T01:30:03.313Z,164.17
2023-03-29T01:31:03.536Z,161.28
2023-03-29T01:32:03.531Z,160.99
2023-03-29T01:33:03.505Z,157.60
2023-03-29T01:34:03.467Z,150.85
2023-03-29T01:35:03.495Z,149.71
2023-03-29T01:36:03.560Z,150.80
2023-03-29T01:37:03.568Z,149.82
2023-03-29T01:38:03.612Z,151.26
2023-03-29T01:39:03.666Z,149.91
2023-03-29T01:40:03.701Z,147.99
2023-03-29T01:41:03.993Z,149.93
2023-03-29T01:42:03.792Z,148.00
2023-03-29T01:43:03.840Z,145.20
2023-03-29T01:44:03.863Z,148.46
2023-03-29T01:45:03.938Z,148.18
2023-03-29T01:46:03.997Z,145.79
2023-03-29T01:47:04.026Z,150.03
2023-03-29T01:48:04.100Z,151.60
2023-03-29T01:49:04.092Z,155.20
2023-03-29T01:50:04.114Z,155.46
2023-03-29T01:51:04.460Z,156.00
2023-03-29T01:52:04.193Z,156.51
2023-03-29T01:53:04.208Z,157.01
2023-03-29T01:54:04.261Z,156.14
2023-03-29T01:55:04.272Z,154.18
2023-03-29T01:56:04.279Z,153.70
2023-03-29T01:57:04.368Z,151.83
2023-03-29T01:58:04.338Z,153.27
2023-03-29T01:59:04.420Z,153.44
2023-03-29T02:00:04.389Z,151.50
2023-03-29T02:01:04.664Z,152.69
2023-03-29T02:02:04.464Z,155.02
2023-03-29T02:03:04.528Z,158.95
2023-03-29T02:04:04.498Z,160.06
2023-03-29T02:05:04.558Z,156.77
2023-03-29T02:06:04.604Z,153.32
2023-03-29T02:07:04.661Z,154.69
2023-03-29T02:08:04.691Z,155.60
2023-03-29T02:09:04.710Z,150.12
2023-03-29T02:10:04.801Z,150.37
2023-03-29T02:11:04.947Z,148.60
2023-03-29T02:12:04.811Z,150.29
2023-03-29T02:13:04.844Z,151.41
2023-03-29T02:14:04.821Z,152.03
2023-03-29T02:15:04.893Z,152.41
2023-03-29T02:16:04.949Z,150.62
2023-03-29T02:17:04.955Z,153.12
2023-03-29T02:18:05.060Z,151.93
2023-03-29T02:19:05.069Z,153.23
2023-03-29T02:20:05.127Z,152.80
2023-03-29T02:21:05.145Z,153.45
2023-03-29T02:22:05.197Z,151.83
2023-03-29T02:23:05.243Z,151.78
2023-03-29T02:24:05.295Z,151.12
2023-03-29T02:25:05.355Z,150.90
2023-03-29T02:26:05.394Z,150.01
2023-03-29T02:27:05.433Z,148.89
2023-03-29T02:28:05.461Z,148.44
2023-03-29T02:29:05.520Z,147.52
2023-03-29T02:30:05.591Z,149.49
2023-03-29T02:31:05.755Z,150.95
2023-03-29T02:32:05.695Z,153.87
2023-03-29T02:33:05.852Z,155.36
2023-03-29T02:34:05.750Z,153.98
2023-03-29T02:35:05.909Z,152.45
2023-03-29T02:36:05.862Z,153.52
2023-03-29T02:37:05.903Z,158.34
2023-03-29T02:38:05.964Z,155.38
2023-03-29T02:39:06.006Z,157.35
2023-03-29T02:40:06.151Z,158.55
2023-03-29T02:41:06.091Z,160.48
2023-03-29T02:42:06.154Z,159.40
2023-03-29T02:43:06.213Z,162.61
2023-03-29T02:44:06.242Z,166.55
2023-03-29T02:45:06.270Z,167.67
2023-03-29T02:46:06.340Z,169.24
2023-03-29T02:47:06.339Z,171.12
2023-03-29T02:48:06.483Z,171.88
2023-03-29T02:49:06.407Z,172.00
2023-03-29T02:50:06.442Z,172.71
2023-03-29T02:51:06.456Z,173.40
2023-03-29T02:52:06.458Z,174.95
2023-03-29T02:53:06.508Z,175.68
2023-03-29T02:54:06.551Z,176.51
2023-03-29T02:55:06.569Z,174.98
2023-03-29T02:56:06.655Z,179.98
2023-03-29T02:57:06.723Z,185.71
2023-03-29T02:58:06.696Z,190.04
2023-03-29T02:59:06.728Z,198.81
2023-03-29T03:00:06.743Z,198.62
2023-03-29T03:01:06.803Z,190.02
2023-03-29T03:02:06.890Z,186.17
2023-03-29T03:03:06.974Z,184.53
2023-03-29T03:04:06.988Z,190.94
2023-03-29T03:05:06.988Z,194.14
2023-03-29T03:06:07.002Z,193.11
2023-03-29T03:07:07.003Z,192.98
2023-03-29T03:08:07.058Z,193.57
2023-03-29T03:09:07.072Z,192.13
2023-03-29T03:10:07.137Z,193.43
2023-03-29T03:11:07.201Z,190.86
2023-03-29T03:12:07.222Z,193.62
2023-03-29T03:13:07.311Z,192.92
2023-03-29T03:14:07.347Z,191.18
2023-03-29T03:15:07.396Z,192.96
2023-03-29T03:16:07.474Z,191.94
2023-03-29T03:17:07.478Z,195.00
2023-03-29T03:18:07.619Z,196.09
2023-03-29T03:19:07.577Z,193.74
2023-03-29T03:20:07.625Z,192.30
2023-03-29T03:21:07.666Z,194.95
2023-03-29T03:22:07.807Z,191.03
2023-03-29T03:23:07.749Z,191.65
2023-03-29T03:24:07.800Z,189.15
2023-03-29T03:25:07.837Z,188.33
2023-03-29T03:26:07.862Z,186.95
2023-03-29T03:27:07.898Z,189.31
2023-03-29T03:28:07.879Z,192.21
2023-03-29T03:29:07.925Z,193.35
2023-03-29T03:30:08.006Z,192.62
2023-03-29T03:31:08.021Z,191.76
2023-03-29T03:32:08.073Z,195.12
2023-03-29T03:33:08.013Z,197.46
2023-03-29T03:34:08.068Z,197.34
2023-03-29T03:35:08.120Z,194.08
2023-03-29T03:36:08.228Z,197.57
2023-03-29T03:37:08.230Z,196.67
2023-03-29T03:38:08.259Z,196.67
2023-03-29T03:39:08.291Z,192.41
2023-03-29T03:40:08.297Z,194.55
2023-03-29T03:41:08.308Z,197.39
2023-03-29T03:42:08.635Z,193.30
2023-03-29T03:43:08.348Z,196.19
2023-03-29T03:44:08.357Z,190.87
2023-03-29T03:45:08.392Z,190.65
2023-03-29T03:46:08.452Z,189.64
2023-03-29T03:47:08.427Z,186.93
2023-03-29T03:48:08.477Z,190.20
2023-03-29T03:49:08.477Z,205.32
2023-03-29T03:50:08.522Z,209.69
2023-03-29T03:51:08.577Z,213.01
2023-03-29T03:52:08.601Z,201.77
2023-03-29T03:53:08.724Z,190.50
2023-03-29T03:54:08.721Z,188.66
2023-03-29T03:55:08.746Z,183.16
2023-03-29T03:56:08.823Z,185.34
2023-03-29T03:57:08.922Z,185.66
2023-03-29T03:58:08.893Z,191.44
2023-03-29T03:59:08.941Z,196.40
2023-03-29T04:00:08.991Z,198.39
2023-03-29T04:01:09.007Z,191.48
2023-03-29T04:02:09.073Z,187.66
2023-03-29T04:03:09.228Z,181.55
2023-03-29T04:04:09.152Z,178.15
2023-03-29T04:05:09.124Z,178.82
2023-03-29T04:06:09.115Z,182.16
2023-03-29T04:07:09.171Z,186.29
2023-03-29T04:08:09.206Z,187.89
2023-03-29T04:09:09.307Z,187.99
2023-03-29T04:10:09.317Z,185.43
2023-03-29T04:11:09.354Z,186.59
2023-03-29T04:12:09.374Z,190.66
2023-03-29T04:13:09.417Z,188.72
2023-03-29T04:14:09.488Z,184.19
2023-03-29T04:15:09.512Z,186.09
2023-03-29T04:16:09.578Z,191.91
2023-03-29T04:17:09.583Z,195.83
2023-03-29T04:18:09.705Z,194.76
2023-03-29T04:19:09.670Z,188.45
2023-03-29T04:20:09.695Z,190.90
2023-03-29T04:21:09.737Z,206.76
2023-03-29T04:22:09.789Z,210.83
2023-03-29T04:23:09.850Z,218.14
2023-03-29T04:24:09.888Z,212.51
2023-03-29T04:25:09.953Z,201.77
2023-03-29T04:26:09.985Z,190.16
2023-03-29T04:27:10.042Z,186.46
2023-03-29T04:28:10.089Z,185.95
2023-03-29T04:29:10.137Z,179.85
2023-03-29T04:30:10.201Z,185.75
2023-03-29T04:31:10.272Z,189.17
2023-03-29T04:32:10.264Z,187.33
2023-03-29T04:33:10.398Z,187.98
2023-03-29T04:34:10.354Z,186.88
2023-03-29T04:35:10.402Z,182.86
2023-03-29T04:36:10.427Z,183.51
2023-03-29T04:37:10.470Z,183.41
2023-03-29T04:38:10.429Z,183.35
2023-03-29T04:39:10.454Z,184.98
2023-03-29T04:40:10.480Z,185.19
2023-03-29T04:41:10.526Z,190.78
2023-03-29T04:42:10.582Z,195.34
2023-03-29T04:43:10.624Z,194.27
2023-03-29T04:44:10.692Z,195.82
2023-03-29T04:45:10.773Z,196.83
2023-03-29T04:46:10.798Z,194.78
2023-03-29T04:47:10.819Z,194.19
2023-03-29T04:48:10.898Z,193.83
2023-03-29T04:49:10.882Z,197.10
2023-03-29T04:50:10.968Z,205.93
2023-03-29T04:51:10.911Z,206.80
2023-03-29T04:52:10.951Z,200.84
2023-03-29T04:53:11.008Z,198.52
2023-03-29T04:54:11.065Z,199.43
2023-03-29T04:55:11.076Z,210.00
2023-03-29T04:56:11.124Z,219.40
2023-03-29T04:57:11.204Z,235.72
2023-03-29T04:58:11.196Z,236.68
2023-03-29T04:59:11.240Z,224.35
2023-03-29T05:00:11.258Z,213.04
2023-03-29T05:01:11.332Z,203.22
2023-03-29T05:02:11.403Z,197.47
2023-03-29T05:03:11.551Z,197.17
2023-03-29T05:04:12.750Z,194.63
2023-03-29T05:05:11.525Z,198.92
2023-03-29T05:06:11.563Z,194.50
2023-03-29T05:07:11.624Z,199.10
2023-03-29T05:08:11.679Z,203.18
2023-03-29T05:09:11.732Z,207.62
2023-03-29T05:10:11.759Z,208.14
2023-03-29T05:11:11.835Z,209.61
2023-03-29T05:12:11.859Z,209.21
2023-03-29T05:13:11.929Z,209.37
2023-03-29T05:14:11.969Z,206.60
2023-03-29T05:15:12.011Z,208.14
2023-03-29T05:16:12.112Z,208.24
2023-03-29T05:17:12.117Z,210.33
2023-03-29T05:18:12.196Z,224.11
2023-03-29T05:19:12.224Z,233.54
2023-03-29T05:20:12.273Z,228.93
2023-03-29T05:21:12.326Z,224.82
2023-03-29T05:22:12.381Z,222.77
2023-03-29T05:23:12.428Z,222.63
2023-03-29T05:24:12.438Z,221.65
2023-03-29T05:25:12.492Z,216.22
2023-03-29T05:26:12.473Z,230.36
2023-03-29T05:27:12.484Z,247.63
2023-03-29T05:28:12.540Z,252.25
2023-03-29T05:29:12.582Z,250.00
2023-03-29T05:30:12.895Z,249.42
2023-03-29T05:31:15.411Z,248.47
2023-03-29T05:32:12.660Z,248.77
2023-03-29T05:33:12.666Z,250.67
2023-03-29T05:34:12.623Z,255.14
2023-03-29T05:35:12.602Z,260.82
2023-03-29T05:36:12.636Z,272.72
2023-03-29T05:37:12.593Z,267.14
2023-03-29T05:38:12.572Z,259.35
2023-03-29T05:39:12.599Z,250.00
2023-03-29T05:40:12.898Z,250.00
2023-03-29T05:41:12.551Z,250.24
2023-03-29T05:42:12.544Z,249.84
2023-03-29T05:43:12.563Z,250.78
2023-03-29T05:44:12.538Z,250.00
2023-03-29T05:45:12.518Z,248.76
2023-03-29T05:46:12.609Z,248.04
2023-03-29T05:47:12.526Z,248.69
2023-03-29T05:48:12.521Z,249.59
2023-03-29T05:49:12.499Z,250.00
2023-03-29T05:50:12.515Z,246.59
2023-03-29T05:51:12.491Z,240.25
2023-03-29T05:52:12.481Z,241.53
2023-03-29T05:53:12.461Z,236.84
2023-03-29T05:54:12.462Z,232.77
2023-03-29T05:55:12.487Z,221.85
2023-03-29T05:56:12.453Z,226.82
2023-03-29T05:57:12.481Z,218.56
2023-03-29T05:58:12.453Z,219.24
2023-03-29T05:59:12.421Z,223.81
2023-03-29T06:00:12.420Z,226.27
2023-03-29T06:01:12.431Z,225.67
2023-03-29T06:02:12.529Z,226.62
2023-03-29T06:03:19.909Z,223.21
2023-03-29T06:04:13.452Z,223.27
2023-03-29T06:05:12.393Z,216.00
2023-03-29T06:06:12.390Z,213.89
2023-03-29T06:07:12.393Z,211.41
2023-03-29T06:08:12.375Z,206.08
2023-03-29T06:09:12.372Z,210.21
2023-03-29T06:10:12.354Z,203.64
2023-03-29T06:11:12.359Z,200.13
2023-03-29T06:12:12.350Z,207.75
2023-03-29T06:13:12.332Z,210.52
2023-03-29T06:14:12.328Z,216.30
2023-03-29T06:15:12.328Z,216.69
2023-03-29T06:16:12.312Z,212.72
2023-03-29T06:17:12.373Z,220.78
2023-03-29T06:18:12.393Z,206.62
2023-03-29T06:19:12.422Z,209.02
2023-03-29T06:20:12.440Z,206.48
2023-03-29T06:21:12.639Z,212.90
2023-03-29T06:22:14.835Z,212.67
2023-03-29T06:23:12.600Z,210.93
2023-03-29T06:24:12.654Z,220.45
2023-03-29T06:25:12.698Z,220.34
2023-03-29T06:26:12.728Z,215.42
2023-03-29T06:27:12.745Z,215.43
2023-03-29T06:28:12.832Z,209.56
2023-03-29T06:29:12.847Z,203.87
2023-03-29T06:30:12.865Z,204.17
2023-03-29T06:31:13.002Z,204.86
2023-03-29T06:32:13.402Z,200.44
2023-03-29T06:33:13.001Z,198.45
2023-03-29T06:34:13.029Z,206.61
2023-03-29T06:35:13.019Z,209.35
2023-03-29T06:36:13.062Z,215.64
2023-03-29T06:37:13.083Z,219.82
2023-03-29T06:38:13.166Z,228.90
2023-03-29T06:39:13.184Z,234.89
2023-03-29T06:40:13.237Z,242.90
2023-03-29T06:41:13.444Z,245.56
2023-03-29T06:42:21.121Z,238.88
2023-03-29T06:43:14.318Z,237.32
2023-03-29T06:44:13.503Z,239.72
2023-03-29T06:45:13.278Z,242.37
2023-03-29T06:46:13.471Z,247.83
2023-03-29T06:47:13.409Z,254.91
2023-03-29T06:48:13.286Z,249.77
2023-03-29T06:49:13.251Z,247.49
2023-03-29T06:50:13.247Z,243.52
2023-03-29T06:51:13.221Z,242.63
2023-03-29T06:52:13.422Z,245.62
2023-03-29T06:53:13.259Z,247.20
2023-03-29T06:54:13.261Z,248.16
2023-03-29T06:55:13.271Z,248.13
2023-03-29T06:56:13.312Z,248.63
2023-03-29T06:57:13.497Z,249.31
2023-03-29T06:58:13.407Z,247.01
2023-03-29T06:59:13.423Z,243.04
2023-03-29T07:00:13.437Z,240.58
2023-03-29T07:01:13.446Z,239.12
2023-03-29T07:02:13.592Z,238.37
2023-03-29T07:03:13.551Z,240.96
2023-03-29T07:04:13.637Z,238.37
2023-03-29T07:05:13.567Z,235.54
2023-03-29T07:06:13.614Z,237.89
2023-03-29T07:07:14.179Z,238.13
2023-03-29T07:08:13.957Z,240.96
2023-03-29T07:09:13.766Z,242.09
2023-03-29T07:10:13.785Z,243.23
2023-03-29T07:11:13.812Z,243.91
2023-03-29T07:12:14.045Z,239.00
2023-03-29T07:13:13.905Z,238.65
2023-03-29T07:14:13.876Z,240.69
2023-03-29T07:15:13.888Z,237.02
2023-03-29T07:16:13.998Z,232.83
2023-03-29T07:17:13.921Z,234.44
2023-03-29T07:18:13.978Z,234.68
2023-03-29T07:19:14.030Z,234.44
2023-03-29T07:20:14.072Z,236.40
2023-03-29T07:21:14.116Z,234.43
2023-03-29T07:22:14.153Z,234.32
2023-03-29T07:23:14.162Z,234.16
2023-03-29T07:24:14.185Z,235.51
2023-03-29T07:25:14.231Z,235.03
2023-03-29T07:26:14.237Z,228.40
2023-03-29T07:27:15.445Z,228.51
2023-03-29T07:28:14.453Z,228.62
2023-03-29T07:29:14.247Z,228.62
2023-03-29T07:30:14.200Z,232.40
2023-03-29T07:31:14.196Z,233.76
2023-03-29T07:32:14.197Z,229.53
2023-03-29T07:33:14.627Z,227.03
2023-03-29T07:34:14.170Z,217.59
2023-03-29T07:35:14.180Z,204.11
2023-03-29T07:36:14.242Z,190.61
2023-03-29T07:37:14.440Z,182.97
2023-03-29T07:38:14.152Z,176.60
2023-03-29T07:39:14.184Z,173.76
2023-03-29T07:40:14.198Z,186.80
2023-03-29T07:41:14.212Z,211.12
2023-03-29T07:42:14.237Z,210.63
2023-03-29T07:43:14.255Z,192.11
2023-03-29T07:44:14.289Z,198.26
2023-03-29T07:45:14.298Z,197.89
2023-03-29T07:46:14.442Z,193.72
2023-03-29T07:47:14.361Z,194.06
2023-03-29T07:48:14.418Z,204.09
2023-03-29T07:49:14.434Z,200.05
2023-03-29T07:50:14.436Z,193.59
2023-03-29T07:51:14.426Z,192.48
2023-03-29T07:52:14.457Z,194.17
2023-03-29T07:53:14.468Z,192.91
2023-03-29T07:54:14.519Z,194.68
2023-03-29T07:55:14.928Z,197.58
2023-03-29T07:56:14.612Z,199.18
2023-03-29T07:57:14.706Z,195.47
2023-03-29T07:58:14.658Z,190.42
2023-03-29T07:59:14.690Z,196.22
2023-03-29T08:00:15.026Z,207.56
2023-03-29T08:01:17.107Z,204.64
2023-03-29T08:02:14.752Z,193.27
2023-03-29T08:03:14.875Z,179.60
2023-03-29T08:04:14.828Z,168.97
2023-03-29T08:05:17.547Z,165.30
2023-03-29T08:06:15.736Z,169.18
2023-03-29T08:07:16.446Z,166.47
2023-03-29T08:08:14.731Z,158.75
2023-03-29T08:09:14.695Z,154.78
2023-03-29T08:10:14.703Z,151.20
2023-03-29T08:11:14.704Z,140.36
2023-03-29T08:12:14.713Z,131.30
2023-03-29T08:13:14.679Z,122.41
2023-03-29T08:14:14.688Z,118.52
2023-03-29T08:15:14.957Z,116.99
2023-03-29T08:16:14.737Z,124.97
2023-03-29T08:17:14.663Z,123.98
2023-03-29T08:18:14.717Z,123.82
2023-03-29T08:19:14.659Z,130.13
2023-03-29T08:20:14.945Z,138.34
2023-03-29T08:21:14.641Z,155.01
2023-03-29T08:22:14.641Z,165.04
2023-03-29T08:23:14.646Z,182.91
2023-03-29T08:24:14.614Z,205.52
2023-03-29T08:25:14.962Z,214.12
2023-03-29T08:26:14.599Z,217.13
2023-03-29T08:27:14.590Z,219.45
2023-03-29T08:28:14.941Z,221.52
2023-03-29T08:29:14.588Z,212.13
2023-03-29T08:30:14.907Z,216.71
2023-03-29T08:31:14.616Z,204.51
2023-03-29T08:32:14.603Z,199.47
2023-03-29T08:33:14.623Z,211.71
2023-03-29T08:34:14.557Z,220.48
2023-03-29T08:35:14.559Z,217.25
2023-03-29T08:36:14.580Z,213.79
2023-03-29T08:37:14.519Z,214.31
2023-03-29T08:38:15.022Z,213.12
2023-03-29T08:39:14.522Z,212.11
2023-03-29T08:40:14.501Z,195.42
2023-03-29T08:41:14.525Z,199.82
2023-03-29T08:42:14.520Z,199.87
2023-03-29T08:43:14.949Z,188.78
2023-03-29T08:44:14.476Z,182.24
2023-03-29T08:45:14.466Z,180.94
2023-03-29T08:46:14.489Z,180.91
2023-03-29T08:47:14.460Z,184.61
2023-03-29T08:48:14.430Z,191.73
2023-03-29T08:49:14.448Z,200.78
2023-03-29T08:50:14.449Z,205.07
2023-03-29T08:51:14.431Z,204.54
2023-03-29T08:52:14.434Z,197.67
2023-03-29T08:53:14.419Z,197.18
2023-03-29T08:54:14.433Z,193.15
2023-03-29T08:55:14.454Z,194.37
2023-03-29T08:56:14.531Z,194.15
2023-03-29T08:57:14.586Z,196.22
2023-03-29T08:58:14.597Z,197.15
2023-03-29T08:59:14.649Z,195.29
2023-03-29T09:00:14.650Z,195.60
2023-03-29T09:01:14.696Z,188.43
2023-03-29T09:02:14.896Z,186.83
2023-03-29T09:03:14.874Z,187.71
2023-03-29T09:04:14.817Z,189.64
2023-03-29T09:05:14.835Z,186.94
2023-03-29T09:06:14.884Z,188.56
2023-03-29T09:07:14.919Z,187.84
2023-03-29T09:08:14.965Z,187.33
2023-03-29T09:09:14.978Z,184.83
2023-03-29T09:10:15.001Z,186.26
2023-03-29T09:11:15.000Z,191.62
2023-03-29T09:12:15.048Z,189.10
2023-03-29T09:13:15.171Z,185.37
2023-03-29T09:14:15.156Z,181.78
2023-03-29T09:15:15.183Z,170.32
2023-03-29T09:16:15.288Z,179.60
2023-03-29T09:17:15.272Z,185.17
2023-03-29T09:18:15.515Z,183.58
2023-03-29T09:19:15.376Z,179.32
2023-03-29T09:20:15.422Z,180.16
2023-03-29T09:21:15.449Z,181.36
2023-03-29T09:22:15.488Z,180.15
2023-03-29T09:23:15.988Z,183.92
2023-03-29T09:24:15.589Z,186.16
2023-03-29T09:25:15.541Z,184.77
2023-03-29T09:26:15.602Z,193.87
2023-03-29T09:27:15.627Z,199.19
2023-03-29T09:28:15.989Z,196.50
2023-03-29T09:29:15.698Z,180.78
2023-03-29T09:30:15.804Z,173.36
2023-03-29T09:31:15.820Z,177.97
2023-03-29T09:32:15.849Z,185.75
2023-03-29T09:33:16.005Z,189.09
2023-03-29T09:34:16.104Z,192.79
2023-03-29T09:35:15.956Z,190.15
2023-03-29T09:36:16.056Z,200.45
2023-03-29T09:37:16.018Z,205.80
2023-03-29T09:38:16.037Z,211.01
2023-03-29T09:39:16.079Z,215.83
2023-03-29T09:40:16.067Z,225.07
2023-03-29T09:41:16.097Z,233.20
2023-03-29T09:42:16.121Z,237.60
2023-03-29T09:43:16.187Z,238.98
2023-03-29T09:44:29.817Z,239.28
2023-03-29T09:45:17.180Z,239.36
2023-03-29T09:46:16.383Z,239.61
2023-03-29T09:47:16.176Z,239.77
2023-03-29T09:48:16.483Z,242.52
2023-03-29T09:49:17.418Z,235.46
2023-03-29T09:50:27.739Z,245.33
2023-03-29T09:51:17.142Z,245.52
2023-03-29T09:52:16.136Z,246.56
2023-03-29T09:53:16.148Z,244.11
2023-03-29T09:54:16.162Z,251.40
2023-03-29T09:55:16.135Z,256.74
2023-03-29T09:56:16.097Z,252.69
2023-03-29T09:57:16.180Z,250.27
2023-03-29T09:58:16.125Z,249.46
2023-03-29T09:59:16.481Z,247.05
2023-03-29T10:00:16.122Z,248.64
2023-03-29T10:01:16.109Z,247.49
2023-03-29T10:02:16.066Z,243.87
2023-03-29T10:03:16.053Z,244.27
2023-03-29T10:04:16.553Z,243.04
2023-03-29T10:05:16.115Z,243.68
2023-03-29T10:06:16.189Z,233.27
2023-03-29T10:07:16.223Z,185.31
2023-03-29T10:08:19.027Z,191.52
2023-03-29T10:09:16.501Z,190.27
2023-03-29T10:10:16.276Z,178.61
2023-03-29T10:11:16.205Z,176.38
2023-03-29T10:12:16.203Z,171.88
2023-03-29T10:13:16.201Z,154.59
2023-03-29T10:14:16.204Z,146.29
2023-03-29T10:15:26.712Z,142.73
2023-03-29T10:16:17.256Z,143.18
2023-03-29T10:17:16.174Z,145.91
2023-03-29T10:18:16.165Z,151.23
2023-03-29T10:19:16.489Z,159.05
2023-03-29T10:20:16.165Z,169.68
2023-03-29T10:21:16.143Z,168.74
2023-03-29T10:22:16.120Z,159.03
2023-03-29T10:23:16.157Z,137.09
2023-03-29T10:24:16.143Z,129.51
2023-03-29T10:25:16.119Z,112.10
2023-03-29T10:26:16.118Z,110.65
2023-03-29T10:27:16.087Z,102.62
2023-03-29T10:28:16.134Z,112.45
2023-03-29T10:29:16.106Z,108.12
2023-03-29T10:30:16.127Z,83.74
2023-03-29T10:31:17.861Z,81.38
2023-03-29T10:32:16.163Z,81.64
2023-03-29T10:33:16.168Z,84.10
2023-03-29T10:34:16.174Z,68.74
2023-03-29T10:35:16.210Z,69.30
2023-03-29T10:36:16.297Z,76.19
2023-03-29T10:37:16.275Z,72.83
2023-03-29T10:38:16.305Z,66.22
2023-03-29T10:39:16.352Z,59.87
2023-03-29T10:40:16.522Z,57.67
2023-03-29T10:41:16.436Z,48.65
2023-03-29T10:42:16.451Z,50.43
2023-03-29T10:43:16.469Z,50.20
2023-03-29T10:44:16.502Z,47.76
2023-03-29T10:45:16.552Z,51.54
2023-03-29T10:46:16.728Z,45.61
2023-03-29T10:47:16.649Z,47.86
2023-03-29T10:48:16.653Z,62.45
2023-03-29T10:49:16.708Z,70.69
2023-03-29T10:50:16.743Z,67.32
2023-03-29T10:51:16.747Z,75.12
2023-03-29T10:52:16.781Z,70.02
2023-03-29T10:53:16.832Z,57.39
2023-03-29T10:54:16.847Z,52.14
2023-03-29T10:55:16.927Z,45.42
2023-03-29T10:56:16.909Z,40.30
2023-03-29T10:57:16.994Z,38.34
2023-03-29T10:58:17.025Z,40.48
2023-03-29T10:59:17.020Z,42.09
2023-03-29T11:00:17.526Z,43.84
2023-03-29T11:01:18.054Z,49.12
2023-03-29T11:02:17.107Z,51.09
2023-03-29T11:03:19.515Z,62.82
2023-03-29T11:04:17.075Z,61.73
2023-03-29T11:05:17.057Z,58.41
2023-03-29T11:06:17.028Z,64.33
2023-03-29T11:07:17.026Z,69.49
2023-03-29T11:08:17.024Z,83.33
2023-03-29T11:09:17.026Z,93.73
2023-03-29T11:10:17.013Z,103.00
2023-03-29T11:11:17.024Z,106.59
2023-03-29T11:12:17.014Z,106.47
2023-03-29T11:13:16.989Z,96.73
2023-03-29T11:14:16.961Z,85.69
2023-03-29T11:15:17.027Z,80.11
2023-03-29T11:16:17.029Z,75.96
2023-03-29T11:17:16.984Z,72.35
2023-03-29T11:18:16.944Z,73.63
2023-03-29T11:19:16.946Z,78.97
2023-03-29T11:20:16.968Z,106.85
2023-03-29T11:21:16.913Z,140.56
2023-03-29T11:22:16.896Z,156.36
2023-03-29T11:23:16.902Z,165.08
2023-03-29T11:24:16.904Z,192.81
2023-03-29T11:25:16.900Z,201.80
2023-03-29T11:26:16.894Z,189.33
2023-03-29T11:27:16.873Z,173.00
2023-03-29T11:28:16.877Z,167.19
2023-03-29T11:29:16.878Z,172.69
2023-03-29T11:30:16.866Z,167.25
2023-03-29T11:31:16.878Z,159.87
2023-03-29T11:32:16.830Z,152.56
2023-03-29T11:33:16.856Z,149.04
2023-03-29T11:34:16.845Z,148.98
2023-03-29T11:35:16.815Z,148.74
2023-03-29T11:36:16.873Z,152.43
2023-03-29T11:37:16.812Z,155.51
2023-03-29T11:38:16.780Z,158.63
2023-03-29T11:39:16.798Z,159.00
2023-03-29T11:40:16.789Z,161.51
2023-03-29T11:41:16.778Z,158.72
2023-03-29T11:42:16.828Z,155.43
2023-03-29T11:43:16.836Z,153.97
2023-03-29T11:44:16.919Z,153.86
2023-03-29T11:45:16.927Z,151.96
2023-03-29T11:46:16.984Z,152.80
2023-03-29T11:47:16.987Z,150.01
2023-03-29T11:48:17.015Z,148.99
2023-03-29T11:49:17.065Z,147.17
2023-03-29T11:50:17.116Z,152.44
2023-03-29T11:51:17.135Z,144.32
2023-03-29T11:52:17.171Z,144.84
2023-03-29T11:53:17.205Z,141.05
2023-03-29T11:54:17.217Z,139.74
2023-03-29T11:55:17.244Z,140.55
2023-03-29T11:56:17.552Z,143.55
2023-03-29T11:57:17.626Z,145.21
2023-03-29T11:58:17.389Z,143.68
2023-03-29T11:59:17.436Z,142.05
2023-03-29T12:00:17.485Z,139.85
2023-03-29T12:01:17.554Z,142.26
2023-03-29T12:02:18.079Z,142.09
2023-03-29T12:03:18.103Z,144.22
2023-03-29T12:04:17.726Z,140.62
2023-03-29T12:05:17.658Z,138.85
2023-03-29T12:06:17.681Z,137.81
2023-03-29T12:07:17.748Z,134.35
2023-03-29T12:08:18.050Z,139.08
2023-03-29T12:09:17.839Z,141.25
2023-03-29T12:10:17.859Z,143.19
2023-03-29T12:11:17.875Z,139.25
2023-03-29T12:12:17.993Z,142.21
2023-03-29T12:13:18.045Z,140.30
2023-03-29T12:14:17.924Z,142.32
2023-03-29T12:15:17.977Z,137.95
2023-03-29T12:16:18.033Z,139.16
2023-03-29T12:17:18.074Z,141.91
2023-03-29T12:18:18.119Z,141.85
2023-03-29T12:19:18.154Z,143.29
2023-03-29T12:20:18.186Z,142.04
2023-03-29T12:21:18.224Z,143.82
2023-03-29T12:22:18.246Z,142.16
2023-03-29T12:23:18.240Z,145.05
2023-03-29T12:24:18.279Z,140.58
2023-03-29T12:25:20.212Z,138.23
2023-03-29T12:26:18.255Z,136.02
2023-03-29T12:27:18.272Z,134.80
2023-03-29T12:28:18.253Z,134.30
2023-03-29T12:29:18.232Z,133.33